Time;durP1;ratioP1;P1;durP2;ratioP2;P2;SDS_P1;SDS_P2;PMS_P1;PMS_P2;Temp;Humidity;BMP_temperature;BMP_pressure;BME280_temperature;BME280_humidity;BME280_pressure;Samples;Min_cycle;Max_cycle;Signal;HPM_P1;HPM_P2
2021/06/25 00:03:58;;;;;;;5.67;5.07;;;;;;;18.54;100.00;101847.84;1927692;72;39469;-74
2021/06/25 00:09:22;;;;;;;4.53;4.13;;;;;;;18.47;100.00;101832.50;1751988;80;86280;-68
2021/06/25 00:14:47;;;;;;;3.90;3.27;;;;;;;18.39;100.00;101823.39;1946238;73;39619;-68
2021/06/25 00:20:14;;;;;;;3.43;3.07;;;;;;;18.38;100.00;101809.90;1892661;74;86732;-74
2021/06/25 00:25:39;;;;;;;3.20;2.90;;;;;;;18.46;100.00;101813.95;1906224;72;39596;-68
2021/06/25 00:31:04;;;;;;;3.33;2.93;;;;;;;18.41;100.00;101812.08;1892697;73;39787;-73
2021/06/25 00:36:28;;;;;;;3.40;2.50;;;;;;;18.36;100.00;101805.72;1777946;78;86581;-72
2021/06/25 00:41:52;;;;;;;3.10;2.17;;;;;;;18.18;100.00;101798.48;1931635;72;39822;-67
2021/06/25 00:47:19;;;;;;;1.97;1.80;;;;;;;18.14;100.00;101803.08;1899200;75;86641;-72
2021/06/25 00:52:43;;;;;;;2.50;1.73;;;;;;;18.14;100.00;101791.02;1920300;73;39558;-74
2021/06/25 00:58:08;;;;;;;4.50;2.00;;;;;;;18.00;100.00;101794.41;1881685;75;86478;-74
2021/06/25 01:03:34;;;;;;;3.37;2.00;;;;;;;17.76;100.00;101790.36;1907784;73;39511;-73
2021/06/25 01:08:59;;;;;;;3.27;2.23;;;;;;;17.60;100.00;101787.02;1892351;73;39655;-68
2021/06/25 01:14:27;;;;;;;2.57;1.97;;;;;;;17.67;100.00;101791.66;1798892;77;86145;-74
2021/06/25 01:19:51;;;;;;;3.13;1.73;;;;;;;17.69;100.00;101789.38;1945557;73;39564;-72
2021/06/25 01:25:24;;;;;;;4.33;1.77;;;;;;;17.62;100.00;101793.18;1825340;77;86426;-68
2021/06/25 01:30:51;;;;;;;1.97;1.70;;;;;;;17.60;100.00;101787.59;1945603;73;39657;-68
2021/06/25 01:36:17;;;;;;;2.97;1.90;;;;;;;17.29;100.00;101787.27;1832459;78;86523;-67
2021/06/25 01:41:43;;;;;;;3.33;2.67;;;;;;;17.01;100.00;101782.16;1947076;73;39501;-68
2021/06/25 01:47:08;;;;;;;2.67;2.47;;;;;;;16.68;100.00;101781.84;1888921;75;86933;-73
2021/06/25 01:52:31;;;;;;;3.80;2.50;;;;;;;16.32;100.00;101776.70;1867441;75;86886;-68
2021/06/25 01:57:57;;;;;;;3.37;2.67;;;;;;;16.39;100.00;101771.55;1944479;73;40391;-68
2021/06/25 02:03:21;;;;;;;3.43;2.50;;;;;;;16.33;100.00;101768.56;1942167;72;86543;-68
2021/06/25 02:08:47;;;;;;;3.53;2.40;;;;;;;16.16;100.00;101768.23;1946590;73;39741;-68
2021/06/25 02:14:14;;;;;;;3.80;2.90;;;;;;;15.95;100.00;101775.23;1878501;74;86673;-72
2021/06/25 02:19:39;;;;;;;4.70;3.03;;;;;;;15.94;100.00;101770.20;1922860;73;39458;-72
2021/06/25 02:25:04;;;;;;;4.47;2.67;;;;;;;16.11;100.00;101744.47;1924735;72;40283;-73
2021/06/25 02:30:28;;;;;;;3.43;2.20;;;;;;;16.11;100.00;101740.27;1882655;75;86048;-73
2021/06/25 02:35:59;;;;;;;2.63;2.20;;;;;;;16.15;100.00;101730.12;1944261;72;39653;-72
2021/06/25 02:41:23;;;;;;;3.83;2.20;;;;;;;16.20;100.00;101727.81;1947529;71;85630;-72
2021/06/25 02:46:50;;;;;;;5.57;2.27;;;;;;;16.26;100.00;101725.19;1956871;73;39774;-69
2021/06/25 02:52:13;;;;;;;2.90;2.17;;;;;;;16.07;100.00;101726.59;1837151;77;86920;-73
2021/06/25 02:57:37;;;;;;;4.40;2.17;;;;;;;16.08;100.00;101721.83;1923931;73;39519;-74
2021/06/25 03:03:04;;;;;;;2.30;2.10;;;;;;;16.14;100.00;101713.59;1943104;73;39582;-73
2021/06/25 03:08:28;;;;;;;3.10;2.20;;;;;;;15.81;100.00;101701.44;1861321;76;86795;-68
2021/06/25 03:13:54;;;;;;;4.00;2.50;;;;;;;15.95;100.00;101705.18;1944857;73;39526;-72
2021/06/25 03:19:19;;;;;;;3.13;2.40;;;;;;;15.75;100.00;101707.66;1837549;77;86424;-68
2021/06/25 03:24:49;;;;;;;3.33;2.80;;;;;;;15.74;100.00;101696.77;1945770;73;39463;-68
2021/06/25 03:30:15;;;;;;;3.10;2.60;;;;;;;15.82;100.00;101698.91;1837182;77;86403;-72
2021/06/25 03:35:42;;;;;;;3.70;2.63;;;;;;;15.79;100.00;101699.48;1936263;72;39497;-72
2021/06/25 03:41:07;;;;;;;3.50;2.77;;;;;;;15.63;100.00;101687.65;1881659;75;86243;-72
2021/06/25 03:46:32;;;;;;;3.63;2.90;;;;;;;15.53;100.00;101700.95;1903957;74;85611;-68
2021/06/25 03:51:55;;;;;;;3.93;2.77;;;;;;;15.74;100.00;101687.80;1944830;73;39515;-67
2021/06/25 03:57:19;;;;;;;3.90;3.37;;;;;;;15.58;100.00;101690.50;1837738;77;86477;-68
2021/06/25 04:02:50;;;;;;;4.13;3.53;;;;;;;15.68;100.00;101684.79;1883256;72;39616;-74
2021/06/25 04:08:15;;;;;;;3.77;3.47;;;;;;;15.68;100.00;101676.38;1832248;78;86506;-72
2021/06/25 04:13:39;;;;;;;5.47;4.10;;;;;;;15.81;100.00;101669.22;1938149;72;39683;-68
2021/06/25 04:19:06;;;;;;;4.67;3.97;;;;;;;15.86;100.00;101676.16;1909127;73;39487;-72
2021/06/25 04:24:30;;;;;;;5.23;3.90;;;;;;;15.84;100.00;101674.20;1952431;71;86646;-72
2021/06/25 04:29:55;;;;;;;4.57;4.17;;;;;;;15.87;100.00;101668.83;1913611;73;39773;-73
2021/06/25 04:35:19;;;;;;;6.90;4.70;;;;;;;15.91;100.00;101667.13;1869353;76;86569;-74
2021/06/25 04:40:45;;;;;;;4.53;4.13;;;;;;;16.01;100.00;101661.09;1946781;73;39782;-72
2021/06/25 04:46:10;;;;;;;6.00;3.97;;;;;;;16.06;100.00;101661.86;1890204;75;85614;-72
2021/06/25 04:51:34;;;;;;;6.37;3.73;;;;;;;16.20;100.00;101661.94;1925525;73;39606;-67
2021/06/25 04:56:58;;;;;;;4.47;4.07;;;;;;;16.28;100.00;101662.66;1944088;73;39519;-73
2021/06/25 05:02:23;;;;;;;4.60;4.00;;;;;;;16.45;100.00;101664.91;1947807;71;86304;-68
2021/06/25 05:07:50;;;;;;;4.57;4.07;;;;;;;16.51;100.00;101670.16;1897146;73;39652;-73
2021/06/25 05:13:15;;;;;;;4.70;4.30;;;;;;;16.46;100.00;101666.59;1882885;75;86509;-75
2021/06/25 05:18:43;;;;;;;5.70;4.00;;;;;;;16.37;100.00;101670.08;1921932;73;39421;-72
2021/06/25 05:24:08;;;;;;;4.50;3.77;;;;;;;16.35;100.00;101663.09;1877308;75;86467;-72
2021/06/25 05:29:34;;;;;;;4.83;4.23;;;;;;;16.37;100.00;101655.23;1949311;73;39657;-72
2021/06/25 05:35:00;;;;;;;6.07;4.23;;;;;;;16.42;100.00;101663.56;1892081;72;40568;-75
2021/06/25 05:40:25;;;;;;;4.23;3.70;;;;;;;16.46;100.00;101663.78;1862143;76;86554;-67
2021/06/25 05:45:49;;;;;;;4.87;3.90;;;;;;;16.60;100.00;101665.52;1944878;72;39702;-72
2021/06/25 05:51:12;;;;;;;4.63;3.63;;;;;;;16.67;100.00;101660.94;1892758;74;86724;-67
2021/06/25 05:56:37;;;;;;;4.50;3.40;;;;;;;16.78;100.00;101659.61;1948837;73;39524;-73
2021/06/25 06:02:02;;;;;;;3.90;3.50;;;;;;;16.79;100.00;101667.73;1911913;73;39656;-74
2021/06/25 06:07:27;;;;;;;4.83;3.53;;;;;;;16.91;100.00;101654.61;1880537;75;86441;-73
2021/06/25 06:12:54;;;;;;;4.03;3.60;;;;;;;16.98;100.00;101662.64;1931069;72;39740;-75
2021/06/25 06:18:25;;;;;;;5.30;3.70;;;;;;;17.05;100.00;101665.30;1837691;77;86274;-68
2021/06/25 06:35:13;;;;;;;4.10;3.30;;;;;;;17.18;100.00;101659.45;1877840;74;86101;-75
2021/06/25 06:40:38;;;;;;;3.70;3.40;;;;;;;17.17;100.00;101667.03;1938732;73;39648;-74
2021/06/25 06:46:02;;;;;;;3.60;3.23;;;;;;;17.14;100.00;101667.66;1943262;73;39575;-75
2021/06/25 06:51:28;;;;;;;4.23;3.43;;;;;;;17.24;100.00;101674.47;1869433;76;86532;-75
2021/06/25 06:56:51;;;;;;;3.50;3.20;;;;;;;17.15;100.00;101679.16;1945472;73;39478;-75
2021/06/25 07:02:15;;;;;;;3.40;3.10;;;;;;;17.18;100.00;101678.53;1869399;77;86996;-72
2021/06/25 07:07:40;;;;;;;3.50;3.20;;;;;;;17.33;100.00;101675.98;1947685;73;39504;-70
2021/06/25 07:13:07;;;;;;;4.73;3.60;;;;;;;17.51;100.00;101675.64;1845826;78;86782;-72
2021/06/25 07:18:39;;;;;;;5.27;3.73;;;;;;;17.48;100.00;101676.27;1882534;74;86184;-71
2021/06/25 07:24:04;;;;;;;3.87;3.47;;;;;;;17.46;100.00;101676.57;1943007;73;39602;-74
2021/06/25 07:29:29;;;;;;;3.50;3.20;;;;;;;17.46;100.00;101685.00;1777457;80;86484;-69
2021/06/25 07:34:56;;;;;;;3.53;3.20;;;;;;;17.58;100.00;101677.52;1944494;73;40344;-75
2021/06/25 07:40:21;;;;;;;3.70;3.40;;;;;;;17.63;100.00;101679.62;1837681;77;86255;-74
2021/06/25 07:45:45;;;;;;;3.70;3.40;;;;;;;17.63;100.00;101680.19;1920181;73;39808;-71
2021/06/25 07:51:08;;;;;;;4.23;3.80;;;;;;;17.74;100.00;101685.31;1877102;75;86541;-69
2021/06/25 07:56:33;;;;;;;3.53;3.33;;;;;;;17.88;100.00;101693.73;1926095;73;39643;-75
2021/06/25 08:01:59;;;;;;;3.70;3.40;;;;;;;18.12;100.00;101682.23;1944605;73;39621;-75
2021/06/25 08:07:24;;;;;;;4.30;3.60;;;;;;;18.22;100.00;101679.20;1855918;74;86751;-76
2021/06/25 08:12:48;;;;;;;4.17;3.77;;;;;;;18.11;100.00;101671.55;1932893;72;39798;-78
2021/06/25 08:18:12;;;;;;;3.97;3.67;;;;;;;18.32;100.00;101673.88;1877755;75;86430;-68
2021/06/25 08:23:37;;;;;;;2.80;2.60;;;;;;;18.34;100.00;101662.59;1923974;73;39457;-69
2021/06/25 08:29:01;;;;;;;3.90;3.50;;;;;;;18.71;100.00;101651.56;1910252;73;39959;-71
2021/06/25 08:34:28;;;;;;;3.27;2.97;;;;;;;19.10;100.00;101654.46;1947424;71;86489;-69
2021/06/25 08:39:52;;;;;;;3.47;2.93;;;;;;;19.15;100.00;101638.00;1933915;72;39503;-73
2021/06/25 08:45:18;;;;;;;3.57;2.77;;;;;;;19.26;100.00;101638.53;1841697;76;86493;-73
2021/06/25 08:50:44;;;;;;;2.77;2.57;;;;;;;19.19;100.00;101639.02;1947360;73;39515;-68
2021/06/25 08:56:09;;;;;;;3.20;2.43;;;;;;;19.20;100.00;101631.41;1877135;75;85653;-70
2021/06/25 09:01:36;;;;;;;2.60;2.40;;;;;;;19.00;100.00;101631.36;1949426;73;39542;-69
2021/06/25 09:07:02;;;;;;;3.07;2.20;;;;;;;19.34;100.00;101632.13;1917051;73;39473;-71
2021/06/25 09:12:35;;;;;;;2.67;1.90;;;;;;;19.50;100.00;101620.70;1949251;73;39424;-78
2021/06/25 09:18:09;;;;;;;2.23;1.90;;;;;;;19.52;100.00;101609.91;1910812;73;39570;-71
2021/06/25 09:23:39;;;;;;;2.97;2.10;;;;;;;19.15;100.00;101614.06;1929406;73;39729;-76
2021/06/25 09:29:19;;;;;;;3.53;2.30;;;;;;;19.08;100.00;101622.96;1942485;73;64792;-73
2021/06/25 09:34:53;;;;;;;2.20;1.83;;;;;;;19.07;100.00;101619.91;1914496;73;39458;-75
2021/06/25 09:40:19;;;;;;;2.17;2.07;;;;;;;19.23;100.00;101619.48;1837542;77;86319;-74
2021/06/25 09:46:04;;;;;;;2.47;1.80;;;;;;;19.44;100.00;101617.19;1943342;73;39507;-75
2021/06/25 09:51:56;;;;;;;2.40;2.20;;;;;;;19.80;100.00;101619.78;1932482;72;39573;-77
2021/06/25 09:57:19;;;;;;;1.80;1.70;;;;;;;19.94;100.00;101611.16;1837739;77;86272;-76
2021/06/25 10:02:45;;;;;;;2.53;2.07;;;;;;;19.88;100.00;101605.44;1920259;73;39676;-74
2021/06/25 10:08:10;;;;;;;1.90;1.50;;;;;;;19.99;100.00;101600.55;1877343;75;85586;-75
2021/06/25 10:13:38;;;;;;;2.20;1.30;;;;;;;20.08;100.00;101596.91;1906109;73;39717;-74
2021/06/25 10:19:05;;;;;;;1.93;1.67;;;;;;;20.21;100.00;101603.80;1924607;72;39526;-69
2021/06/25 10:24:31;;;;;;;1.60;1.50;;;;;;;20.40;100.00;101604.91;1785280;79;85499;-74
2021/06/25 10:29:59;;;;;;;1.67;1.50;;;;;;;20.40;100.00;101602.09;1944434;73;39500;-74
2021/06/25 10:35:25;;;;;;;1.63;1.53;;;;;;;20.51;100.00;101601.16;1799072;79;86457;-70
2021/06/25 10:40:58;;;;;;;1.43;1.33;;;;;;;20.57;100.00;101593.61;1916536;73;39681;-69
2021/06/25 10:46:41;;;;;;;1.60;1.47;;;;;;;20.92;100.00;101584.47;1957556;73;39550;-74
2021/06/25 10:52:12;;;;;;;1.30;1.20;;;;;;;20.91;100.00;101585.63;1908794;73;39785;-74
2021/06/25 10:57:40;;;;;;;1.50;1.40;;;;;;;21.16;100.00;101583.33;1923640;73;39537;-74
2021/06/25 11:03:07;;;;;;;1.50;1.40;;;;;;;21.34;100.00;101575.59;1877196;75;85434;-69
2021/06/25 11:08:32;;;;;;;1.77;1.10;;;;;;;21.75;100.00;101572.01;1838738;77;86614;-73
2021/06/25 11:13:56;;;;;;;1.03;1.03;;;;;;;21.62;100.00;101559.78;1912902;73;39590;-74
2021/06/25 11:19:36;;;;;;;1.40;1.33;;;;;;;21.78;100.00;101557.17;1837905;77;85997;-72
2021/06/25 11:22:26;;;;;;;1.33;1.23;;;;;;;21.58;100.00;101574.95;1798573;78;934667;-74
2021/06/25 11:28:23;;;;;;;1.23;1.00;;;;;;;21.55;100.00;101557.27;1875725;75;39682;-73
2021/06/25 11:34:05;;;;;;;1.00;1.00;;;;;;;21.66;100.00;101572.65;1907875;74;85765;-74
2021/06/25 11:39:35;;;;;;;1.00;1.00;;;;;;;21.32;100.00;101564.63;1926250;73;39513;-69
2021/06/25 11:45:02;;;;;;;0.93;0.80;;;;;;;21.53;100.00;101557.59;1893851;73;39505;-75
2021/06/25 11:50:21;;;;;;;1.50;1.10;;;;;;;21.72;100.00;101552.91;1837386;76;86371;-77
2021/06/25 11:52:51;;;;;;;1.07;1.00;;;;;;;21.66;100.00;101557.09;1809361;77;934665;-70
2021/06/25 11:58:21;;;;;;;1.10;1.00;;;;;;;21.77;100.00;101545.05;1867826;75;86110;-71
2021/06/25 12:03:57;;;;;;;1.20;1.10;;;;;;;21.97;100.00;101539.77;1915173;73;39527;-71
2021/06/25 12:09:24;;;;;;;1.30;1.20;;;;;;;21.77;100.00;101535.16;1861397;76;85921;-70
2021/06/25 12:14:50;;;;;;;0.97;0.90;;;;;;;21.92;100.00;101525.23;1935118;72;39511;-75
2021/06/25 12:20:19;;;;;;;1.20;1.10;;;;;;;21.86;100.00;101522.95;1868983;77;86602;-69
2021/06/25 12:25:50;;;;;;;1.10;1.00;;;;;;;22.09;100.00;101527.91;1918056;73;39784;-70
2021/06/25 12:31:21;;;;;;;0.90;0.90;;;;;;;21.87;100.00;101523.16;1869627;76;86000;-74
2021/06/25 12:36:59;;;;;;;1.10;1.10;;;;;;;22.03;100.00;101524.25;1917353;73;39667;-75
2021/06/25 12:42:25;;;;;;;1.20;1.10;;;;;;;22.17;100.00;101520.52;1781195;79;86133;-74
2021/06/25 12:47:51;;;;;;;1.10;1.10;;;;;;;22.25;100.00;101521.02;1945522;73;39707;-74
2021/06/25 12:53:28;;;;;;;1.20;1.10;;;;;;;22.16;100.00;101510.39;1776068;79;86615;-76
2021/06/25 12:58:52;;;;;;;1.40;1.20;;;;;;;22.36;100.00;101520.01;1946103;73;39637;-74
2021/06/25 13:04:24;;;;;;;1.20;1.10;;;;;;;22.28;100.00;101515.27;1832587;78;85904;-71
2021/06/25 13:09:51;;;;;;;1.02;0.93;;;;;;;22.24;100.00;101511.73;1933234;73;39614;-73
2021/06/25 13:15:17;;;;;;;1.13;0.90;;;;;;;22.00;100.00;101511.60;1868599;75;86838;-74
2021/06/25 13:21:37;;;;;;;1.20;1.10;;;;;;;22.18;100.00;101515.10;1932255;73;40412;-75
2021/06/25 13:25:00;;;;;;;1.27;1.10;;;;;;;22.12;100.00;101517.92;1840245;76;934298;-75
2021/06/25 13:30:26;;;;;;;1.10;1.10;;;;;;;22.18;100.00;101513.11;1844730;75;87179;-76
2021/06/25 13:35:53;;;;;;;1.32;1.25;;;;;;;22.36;100.00;101511.52;1914837;73;39506;-75
2021/06/25 13:41:39;;;;;;;2.67;1.20;;;;;;;22.71;100.00;101508.58;1875818;74;86294;-71
2021/06/25 13:47:09;;;;;;;1.47;1.35;;;;;;;22.66;100.00;101511.02;1943123;73;39729;-74
2021/06/25 13:52:35;;;;;;;4.80;3.43;;;;;;;22.53;100.00;101495.17;1949099;73;39507;-74
2021/06/25 13:58:07;;;;;;;1.62;1.45;;;;;;;22.53;100.00;101496.59;1845925;77;85494;-74
2021/06/25 14:03:33;;;;;;;2.42;2.05;;;;;;;22.57;100.00;101489.05;1926134;73;39727;-70
2021/06/25 14:09:00;;;;;;;2.17;1.62;;;;;;;22.49;100.00;101497.64;1939695;73;39622;-73
2021/06/25 14:14:27;;;;;;;4.25;2.12;;;;;;;22.45;100.00;101489.61;1947295;71;85612;-76
2021/06/25 14:19:55;;;;;;;3.08;1.87;;;;;;;22.50;100.00;101484.55;1944960;73;39551;-76
2021/06/25 14:25:19;;;;;;;1.35;1.25;;;;;;;22.56;100.00;101470.39;1837872;77;85649;-76
2021/06/25 14:30:44;;;;;;;1.42;1.32;;;;;;;22.46;100.00;101468.00;1919569;72;39513;-73
2021/06/25 14:36:09;;;;;;;1.10;1.10;;;;;;;22.46;100.00;101477.11;1877052;75;86077;-73
2021/06/25 14:41:33;;;;;;;1.55;1.45;;;;;;;22.41;100.00;101473.91;1939567;72;39589;-73
2021/06/25 14:47:04;;;;;;;1.67;1.27;;;;;;;22.24;100.00;101468.44;1908913;73;39597;-72
2021/06/25 14:52:32;;;;;;;1.32;1.20;;;;;;;22.46;100.00;101458.09;1798798;79;86231;-72
2021/06/25 14:57:55;;;;;;;1.50;1.40;;;;;;;22.78;100.00;101449.91;1944711;73;39511;-76
2021/06/25 15:03:20;;;;;;;1.50;1.20;;;;;;;22.68;100.00;101447.75;1832803;78;86479;-70
2021/06/25 15:08:44;;;;;;;1.32;1.22;;;;;;;22.78;100.00;101437.16;1946946;72;39569;-73
2021/06/25 15:14:08;;;;;;;1.27;1.17;;;;;;;22.46;100.00;101439.69;1882147;75;86235;-75
2021/06/25 15:19:36;;;;;;;1.20;1.20;;;;;;;22.27;100.00;101430.94;1949114;73;39452;-75
2021/06/25 15:25:01;;;;;;;1.45;1.35;;;;;;;22.23;100.00;101432.81;1910345;73;39594;-70
2021/06/25 15:30:27;;;;;;;1.50;1.30;;;;;;;22.33;100.00;101429.55;1764364;79;86601;-74
2021/06/25 15:35:52;;;;;;;1.50;1.40;;;;;;;21.99;100.00;101431.34;1930976;72;48724;-76
2021/06/25 15:41:16;;;;;;;1.40;1.25;;;;;;;22.18;100.00;101425.95;1891881;74;86659;-77
2021/06/25 15:46:42;;;;;;;1.40;1.30;;;;;;;21.89;100.00;101426.90;1940947;72;39497;-73
2021/06/25 15:52:06;;;;;;;1.70;1.60;;;;;;;21.78;100.00;101425.08;1846460;77;86184;-70
2021/06/25 15:57:30;;;;;;;1.75;1.45;;;;;;;21.87;100.00;101414.27;1838719;77;86925;-74
2021/06/25 16:03:01;;;;;;;1.50;1.40;;;;;;;22.27;100.00;101405.46;1943605;73;39586;-75
2021/06/25 16:08:29;;;;;;;1.90;1.40;;;;;;;21.95;100.00;101416.23;1825330;77;86365;-73
2021/06/25 16:13:52;;;;;;;1.70;1.60;;;;;;;21.73;100.00;101420.24;1934009;72;39706;-75
2021/06/25 16:19:18;;;;;;;1.80;1.70;;;;;;;21.72;100.00;101412.34;1875732;75;86462;-72
2021/06/25 16:24:43;;;;;;;2.05;1.60;;;;;;;21.70;100.00;101416.67;1947261;73;39780;-76
2021/06/25 16:30:11;;;;;;;1.52;1.42;;;;;;;21.77;100.00;101412.13;1877005;75;86481;-75
2021/06/25 16:35:35;;;;;;;2.22;1.60;;;;;;;22.03;100.00;101399.75;1924909;73;39704;-72
2021/06/25 16:41:00;;;;;;;2.12;1.77;;;;;;;22.17;100.00;101402.48;1943981;73;39674;-75
2021/06/25 16:46:24;;;;;;;3.25;2.20;;;;;;;22.13;100.00;101387.97;1894214;75;86464;-75
2021/06/25 16:51:47;;;;;;;2.70;2.50;;;;;;;21.99;100.00;101395.36;1899137;73;39574;-76
2021/06/25 16:57:11;;;;;;;2.93;1.90;;;;;;;21.95;100.00;101400.06;1877174;75;86748;-74
2021/06/25 17:02:35;;;;;;;2.15;1.95;;;;;;;21.81;100.00;101405.19;1906821;73;39619;-75
2021/06/25 17:08:02;;;;;;;2.90;1.93;;;;;;;21.55;100.00;101404.02;1943706;72;39623;-69
2021/06/25 17:10:31;;;;;;;1.93;1.70;;;;;;;;;;1893153;75;932831;-69
2021/06/25 17:15:55;;;;;;;2.30;1.87;;;;;;;21.41;100.00;101396.98;1930724;72;39515;-69
2021/06/25 17:21:22;;;;;;;2.73;1.70;;;;;;;21.12;100.00;101399.25;1916185;74;85494;-74
2021/06/25 17:26:46;;;;;;;1.90;1.80;;;;;;;20.74;100.00;101409.20;1923063;72;39635;-70
2021/06/25 17:32:10;;;;;;;2.73;2.53;;;;;;;21.00;100.00;101403.41;1877261;75;86132;-75
2021/06/25 17:37:35;;;;;;;3.87;1.90;;;;;;;21.27;100.00;101398.08;1949082;73;39620;-75
2021/06/25 17:43:01;;;;;;;2.60;2.00;;;;;;;21.44;100.00;101401.92;1928679;72;39653;-72
2021/06/25 17:48:24;;;;;;;3.23;1.80;;;;;;;21.55;100.00;101406.01;1856514;76;86501;-72
2021/06/25 17:53:49;;;;;;;2.40;1.70;;;;;;;21.74;100.00;101410.56;1946129;73;39704;-73
2021/06/25 17:59:14;;;;;;;2.73;2.00;;;;;;;21.60;100.00;101405.22;1877209;75;86062;-73
2021/06/25 18:04:39;;;;;;;2.97;2.13;;;;;;;21.26;100.00;101419.63;1923197;73;39704;-74
2021/06/25 18:10:23;;;;;;;2.83;2.00;;;;;;;21.13;100.00;101434.27;1871912;74;86202;-74
2021/06/25 18:15:47;;;;;;;3.15;2.00;;;;;;;21.13;100.00;101432.02;1899435;73;39484;-74
2021/06/25 18:21:12;;;;;;;3.93;2.40;;;;;;;21.20;100.00;101443.59;1877132;75;86381;-68
2021/06/25 18:26:37;;;;;;;2.77;1.85;;;;;;;21.12;100.00;101439.66;1924174;73;39538;-74
2021/06/25 18:32:01;;;;;;;3.70;1.70;;;;;;;21.09;100.00;101447.97;1916709;73;39380;-68
2021/06/25 18:37:25;;;;;;;3.30;2.00;;;;;;;21.07;100.00;101453.13;1825237;78;86476;-73
2021/06/25 18:42:50;;;;;;;3.60;2.20;;;;;;;20.94;100.00;101457.84;1945728;73;39694;-73
2021/06/25 18:48:13;;;;;;;2.73;2.23;;;;;;;20.82;100.00;101468.46;1877443;75;85815;-73
2021/06/25 18:53:37;;;;;;;4.27;2.77;;;;;;;20.61;100.00;101464.73;1928943;72;39435;-68
2021/06/25 18:59:02;;;;;;;5.33;3.23;;;;;;;20.21;100.00;101468.38;1931475;73;39588;-74
2021/06/25 19:04:32;;;;;;;4.97;2.90;;;;;;;19.84;100.00;101476.98;1946189;71;86379;-68
2021/06/25 19:09:56;;;;;;;6.13;2.73;;;;;;;19.67;100.00;101476.16;1932983;72;39616;-72
2021/06/25 19:15:21;;;;;;;3.40;2.03;;;;;;;19.47;100.00;101478.45;1837962;77;86320;-68
2021/06/25 19:20:47;;;;;;;2.27;2.00;;;;;;;19.46;100.00;101485.27;1946493;73;39396;-67
2021/06/25 19:26:13;;;;;;;1.97;1.87;;;;;;;19.29;100.00;101490.84;1877567;75;85548;-67
2021/06/25 19:31:39;;;;;;;3.47;1.90;;;;;;;19.31;100.00;101496.96;1905665;73;39463;-71
2021/06/25 19:37:04;;;;;;;2.53;2.10;;;;;;;19.12;100.00;101496.44;1911202;73;39964;-69
2021/06/25 19:42:29;;;;;;;3.00;2.23;;;;;;;18.87;100.00;101503.61;1838490;77;85583;-69
2021/06/25 19:47:53;;;;;;;5.13;2.50;;;;;;;18.87;100.00;101512.66;1945291;73;39763;-70
2021/06/25 19:53:20;;;;;;;3.43;2.30;;;;;;;18.78;100.00;101511.80;1837438;77;86554;-72
2021/06/25 19:58:45;;;;;;;3.97;2.83;;;;;;;18.84;100.00;101521.73;1946908;73;39785;-69
2021/06/25 20:04:09;;;;;;;3.07;2.40;;;;;;;18.84;100.00;101518.34;1877347;75;86357;-68
2021/06/25 20:09:34;;;;;;;3.87;2.30;;;;;;;18.73;100.00;101521.20;1949564;73;40549;-69
2021/06/25 20:15:02;;;;;;;2.73;2.00;;;;;;;18.67;100.00;101521.66;1911626;73;39521;-70
2021/06/25 20:20:28;;;;;;;3.40;2.70;;;;;;;18.55;100.00;101526.48;1838467;77;86374;-75
2021/06/25 20:26:12;;;;;;;5.40;3.23;;;;;;;18.34;100.00;101528.14;1943797;72;86616;-72
2021/06/25 20:31:37;;;;;;;5.67;3.30;;;;;;;18.23;100.00;101530.38;1924283;73;39697;-69
2021/06/25 20:37:03;;;;;;;4.67;3.07;;;;;;;17.87;100.00;101536.06;1910029;73;39632;-73
2021/06/25 20:42:28;;;;;;;3.67;2.93;;;;;;;17.73;100.00;101540.89;1877937;76;86355;-76
2021/06/25 20:47:51;;;;;;;3.63;3.20;;;;;;;17.67;100.00;101551.41;1901270;73;39631;-75
2021/06/25 20:53:16;;;;;;;3.30;2.97;;;;;;;17.82;100.00;101567.09;1837393;77;86715;-69
2021/06/25 20:58:40;;;;;;;4.23;3.20;;;;;;;17.83;100.00;101558.09;1947849;73;39764;-72
2021/06/25 21:04:06;;;;;;;4.13;2.93;;;;;;;17.77;100.00;101562.16;1892512;72;39855;-70
2021/06/25 21:09:31;;;;;;;4.20;3.50;;;;;;;17.81;100.00;101561.21;1944325;71;86019;-70
2021/06/25 21:14:56;;;;;;;3.73;3.40;;;;;;;17.55;100.00;101552.50;1933475;73;39509;-70
2021/06/25 21:20:22;;;;;;;4.30;3.43;;;;;;;17.46;100.00;101554.38;1837875;77;86532;-67
2021/06/25 21:25:46;;;;;;;3.97;3.03;;;;;;;17.58;100.00;101558.11;1935645;72;39519;-68
2021/06/25 21:31:12;;;;;;;3.40;3.10;;;;;;;17.56;100.00;101565.41;1877254;75;85501;-72
2021/06/25 21:36:37;;;;;;;5.43;3.47;;;;;;;17.56;100.00;101561.76;1948793;73;39807;-68
2021/06/25 21:42:02;;;;;;;4.70;2.90;;;;;;;17.50;100.00;101551.20;1926082;73;39481;-68
2021/06/25 21:47:26;;;;;;;6.00;3.07;;;;;;;17.36;100.00;101561.64;1782484;79;86783;-72
2021/06/25 21:52:50;;;;;;;4.03;3.50;;;;;;;17.22;100.00;101565.86;1916634;73;39811;-68
2021/06/25 21:58:17;;;;;;;5.37;3.43;;;;;;;17.25;100.00;101561.02;1837181;77;86993;-68
2021/06/25 22:03:40;;;;;;;4.97;3.10;;;;;;;16.92;100.00;101586.12;1948445;73;39694;-69
2021/06/25 22:09:05;;;;;;;4.00;3.67;;;;;;;16.86;100.00;101577.52;1910873;73;39464;-70
2021/06/25 22:14:29;;;;;;;3.50;3.20;;;;;;;16.75;100.00;101588.12;1777541;79;86348;-68
2021/06/25 22:19:53;;;;;;;3.20;2.90;;;;;;;16.81;100.00;101588.87;1895776;73;39791;-70
2021/06/25 22:25:22;;;;;;;5.77;3.73;;;;;;;16.63;100.00;101593.96;1837648;77;85804;-70
2021/06/25 22:30:47;;;;;;;3.43;3.10;;;;;;;16.78;100.00;101583.28;1946247;73;39535;-68
2021/06/25 22:36:12;;;;;;;3.23;3.00;;;;;;;16.91;100.00;101580.23;1877213;75;86349;-68
2021/06/25 22:41:36;;;;;;;3.43;3.13;;;;;;;16.78;100.00;101585.25;1924452;72;39644;-70
2021/06/25 22:47:01;;;;;;;3.33;2.80;;;;;;;16.69;100.00;101582.89;1916907;73;39462;-70
2021/06/25 22:52:24;;;;;;;5.03;3.50;;;;;;;17.05;100.00;101591.48;1782432;79;85486;-68
2021/06/25 22:57:47;;;;;;;4.23;3.00;;;;;;;17.18;100.00;101575.22;1934252;72;39806;-71
2021/06/25 23:03:17;;;;;;;3.70;3.07;;;;;;;17.18;100.00;101583.64;1892910;75;86830;-70
2021/06/25 23:08:43;;;;;;;3.97;2.77;;;;;;;17.10;100.00;101589.98;1947249;73;44143;-69
2021/06/25 23:14:09;;;;;;;4.40;2.87;;;;;;;16.85;100.00;101596.92;1877910;76;86572;-70
2021/06/25 23:19:52;;;;;;;3.33;3.03;;;;;;;16.80;100.00;101595.05;1991039;71;39457;-68
2021/06/25 23:25:36;;;;;;;3.67;3.03;;;;;;;16.79;100.00;101595.34;1893516;74;86207;-71
2021/06/25 23:31:01;;;;;;;4.17;3.10;;;;;;;16.64;100.00;101592.83;1943607;73;39722;-68
2021/06/25 23:36:25;;;;;;;4.00;2.90;;;;;;;16.56;100.00;101599.11;1874883;75;86452;-71
2021/06/25 23:41:52;;;;;;;4.43;3.30;;;;;;;16.45;100.00;101618.08;1917768;73;39796;-71
2021/06/25 23:47:37;;;;;;;4.87;3.47;;;;;;;16.35;100.00;101611.22;1807468;78;86553;-70
2021/06/25 23:53:01;;;;;;;4.60;3.30;;;;;;;16.36;100.00;101610.92;1890952;73;39630;-70
2021/06/25 23:58:29;;;;;;;4.17;3.23;;;;;;;15.96;100.00;101623.36;1825341;76;85839;-68
